CheckWX is a tool to help pilots better visualize weather data.  It is not intended as a substitute for an official pre-flight weather briefing.

04:35:01 UTC

EPWR METAR
Copernicus Wrocław Airport
Wrocław, Poland
Current

35 mins ago

EPWR 200400Z VRB01KT 9999 MIFG NSC 02/M01 Q1031
Observed
Apr-20 @ 04:00 UTC
Wind
  • Variable at 1 KTS
Visibility
10,000+ meters
Flight Rules
VFR
Conditions
Shallow Fog
Cloud Levels
  • Clear skies
Temperature
C / 36°F
Dewpoint
-1°C / 30°F
Humidity
81%
Altimeter
30.44" Hg
Pressure
1030.92 hPa
Previous

1 hour ago

EPWR 200330Z 32001KT 9999 MIFG NSC 02/01 Q1030
Observed
Apr-20 @ 03:30 UTC
Wind
  • 320° at 1 KTS
Visibility
10,000+ meters
Flight Rules
VFR
Conditions
Shallow Fog
Cloud Levels
  • Clear skies
Temperature
C / 36°F
Dewpoint
C / 34°F
Humidity
93%
Altimeter
30.41" Hg
Pressure
1029.92 hPa
Previous

2 hours ago

EPWR 200300Z VRB01KT CAVOK 03/01 Q1030
Observed
Apr-20 @ 03:00 UTC
Wind
  • Variable at 1 KTS
Visibility
10,000+ meters
Flight Rules
VFR
Cloud Levels
  • Clear skies
Temperature
C / 37°F
Dewpoint
C / 34°F
Humidity
87%
Altimeter
30.41" Hg
Pressure
1029.92 hPa